createdAt,value
2017-10-25T00:01:01.977Z,12.60
2017-10-25T00:03:29.476Z,12.60
2017-10-25T00:05:57.025Z,12.60
2017-10-25T00:08:24.569Z,12.60
2017-10-25T00:10:52.070Z,12.60
2017-10-25T00:13:19.580Z,12.60
2017-10-25T00:15:47.108Z,12.60
2017-10-25T00:18:14.624Z,12.60
2017-10-25T00:20:42.135Z,12.60
2017-10-25T00:23:09.679Z,12.70
2017-10-25T00:25:37.196Z,12.70
2017-10-25T00:28:05.477Z,12.80
2017-10-25T00:30:33.021Z,12.70
2017-10-25T00:33:01.301Z,12.70
2017-10-25T00:35:29.588Z,12.70
2017-10-25T00:37:57.894Z,12.70
2017-10-25T00:40:25.412Z,12.70
2017-10-25T00:42:52.924Z,12.70
2017-10-25T00:45:20.451Z,12.60
2017-10-25T00:47:48.730Z,12.60
2017-10-25T00:50:16.274Z,12.60
2017-10-25T00:52:44.556Z,12.60
2017-10-25T00:55:12.077Z,12.60
2017-10-25T00:57:39.609Z,12.60
2017-10-25T01:00:07.145Z,12.60
2017-10-25T01:02:34.650Z,12.60
2017-10-25T01:05:02.152Z,12.60
2017-10-25T01:07:30.464Z,12.70
2017-10-25T01:09:57.974Z,12.60
2017-10-25T01:12:25.486Z,12.70
2017-10-25T01:14:53.029Z,12.60
2017-10-25T01:17:20.544Z,12.70
2017-10-25T01:19:48.092Z,12.70
2017-10-25T01:22:15.597Z,12.70
2017-10-25T01:24:43.863Z,12.70
2017-10-25T01:27:12.168Z,12.80
2017-10-25T01:29:39.680Z,12.80
2017-10-25T01:32:07.200Z,12.80
2017-10-25T01:34:34.729Z,12.80
2017-10-25T01:37:02.238Z,12.70
2017-10-25T01:39:29.745Z,12.80
2017-10-25T01:42:01.855Z,12.80
2017-10-25T01:44:29.356Z,12.80
2017-10-25T01:46:57.674Z,12.80
2017-10-25T01:49:25.195Z,12.80
2017-10-25T01:51:53.464Z,12.70
2017-10-25T01:54:21.001Z,12.70
2017-10-25T01:56:48.517Z,12.70
2017-10-25T01:59:19.574Z,12.70
2017-10-25T02:01:47.105Z,12.70
2017-10-25T02:04:14.613Z,12.70
2017-10-25T02:06:42.133Z,12.70
2017-10-25T02:09:09.680Z,12.70
2017-10-25T02:11:37.190Z,12.70
2017-10-25T02:14:04.698Z,12.70
2017-10-25T02:16:33.045Z,12.80
2017-10-25T02:19:01.330Z,12.80
2017-10-25T02:21:28.841Z,12.80
2017-10-25T02:23:56.389Z,12.80
2017-10-25T02:26:23.892Z,12.80
2017-10-25T02:28:51.396Z,12.80
2017-10-25T02:31:19.688Z,12.80
2017-10-25T02:33:47.202Z,12.80
2017-10-25T02:36:14.706Z,12.80
2017-10-25T02:38:42.321Z,12.80
2017-10-25T02:41:09.847Z,12.90
2017-10-25T02:43:37.385Z,12.80
2017-10-25T02:46:04.899Z,12.80
2017-10-25T02:48:32.406Z,12.80
2017-10-25T02:50:59.942Z,12.80
2017-10-25T02:53:28.169Z,12.80
2017-10-25T02:55:55.673Z,12.90
2017-10-25T02:58:23.217Z,12.80
2017-10-25T03:00:50.716Z,12.80
2017-10-25T03:03:18.218Z,12.80
2017-10-25T03:05:45.745Z,12.80
2017-10-25T03:08:13.257Z,12.80
2017-10-25T03:10:40.805Z,12.90
2017-10-25T03:13:08.312Z,12.90
2017-10-25T03:15:35.821Z,12.80
2017-10-25T03:18:03.362Z,12.90
2017-10-25T03:20:30.861Z,12.90
2017-10-25T03:22:58.370Z,12.80
2017-10-25T03:25:25.913Z,12.90
2017-10-25T03:27:53.644Z,12.90
2017-10-25T03:30:22.569Z,12.90
2017-10-25T03:32:50.239Z,12.90
2017-10-25T03:35:17.749Z,12.90
2017-10-25T03:37:45.251Z,12.90
2017-10-25T03:40:12.785Z,13.00
2017-10-25T03:42:41.057Z,12.90
2017-10-25T03:45:08.577Z,12.90
2017-10-25T03:47:36.123Z,12.90
2017-10-25T03:50:03.629Z,12.90
2017-10-25T03:52:31.139Z,12.90
2017-10-25T03:54:58.670Z,12.90
2017-10-25T03:57:26.184Z,12.90
2017-10-25T03:59:53.763Z,12.80
2017-10-25T04:02:21.271Z,12.80
2017-10-25T04:04:49.859Z,12.80
2017-10-25T04:07:17.396Z,12.80
2017-10-25T04:09:45.663Z,12.80
2017-10-25T04:12:13.964Z,12.80
2017-10-25T04:14:41.506Z,12.80
2017-10-25T04:17:09.790Z,12.80
2017-10-25T04:19:37.325Z,12.80
2017-10-25T04:22:04.833Z,12.80
2017-10-25T04:24:32.345Z,12.80
2017-10-25T04:26:59.881Z,12.80
2017-10-25T04:29:27.386Z,12.80
2017-10-25T04:31:55.648Z,12.90
2017-10-25T04:34:23.962Z,12.80
2017-10-25T04:36:51.459Z,12.80
2017-10-25T04:39:18.961Z,12.80
2017-10-25T04:41:46.500Z,12.90
2017-10-25T04:44:14.021Z,12.80
2017-10-25T04:46:41.565Z,12.80
2017-10-25T04:49:09.073Z,12.80
2017-10-25T04:51:36.589Z,12.80
2017-10-25T04:54:04.150Z,12.90
2017-10-25T04:56:31.661Z,12.80
2017-10-25T04:58:59.160Z,12.80
2017-10-25T05:01:26.693Z,12.80
2017-10-25T05:03:54.196Z,12.80
2017-10-25T05:06:21.707Z,12.80
2017-10-25T05:08:50.008Z,12.80
2017-10-25T05:11:17.533Z,12.80
2017-10-25T05:13:45.802Z,12.80
2017-10-25T05:16:13.334Z,12.90
2017-10-25T05:18:40.876Z,12.90
2017-10-25T05:21:08.421Z,12.90
2017-10-25T05:23:36.817Z,12.90
2017-10-25T05:26:04.365Z,12.90
2017-10-25T05:28:31.877Z,12.80
2017-10-25T05:30:59.385Z,12.90
2017-10-25T05:33:26.942Z,12.90
2017-10-25T05:35:54.637Z,12.90
2017-10-25T05:38:22.300Z,13.00
2017-10-25T05:40:49.823Z,13.00
2017-10-25T05:43:17.399Z,12.90
2017-10-25T05:45:44.933Z,12.90
2017-10-25T05:48:12.457Z,13.00
2017-10-25T05:50:40.001Z,13.00
2017-10-25T05:53:07.551Z,13.00
2017-10-25T05:55:35.069Z,13.10
2017-10-25T05:58:03.348Z,13.30
2017-10-25T06:00:31.714Z,13.20
2017-10-25T06:02:59.231Z,13.10
2017-10-25T06:05:26.750Z,13.10
2017-10-25T06:07:55.061Z,13.20
2017-10-25T06:10:22.571Z,13.20
2017-10-25T06:12:50.085Z,13.10
2017-10-25T06:15:17.631Z,13.10
2017-10-25T06:17:45.137Z,13.00
2017-10-25T06:20:12.653Z,13.10
2017-10-25T06:22:40.181Z,13.10
2017-10-25T06:25:08.456Z,13.10
2017-10-25T06:27:36.001Z,13.10
2017-10-25T06:30:03.557Z,13.10
2017-10-25T06:32:31.852Z,13.10
2017-10-25T06:35:00.259Z,13.10
2017-10-25T06:37:27.797Z,13.10
2017-10-25T06:39:55.326Z,13.20
2017-10-25T06:42:22.843Z,13.20
2017-10-25T06:44:50.389Z,13.20
2017-10-25T06:47:17.971Z,13.30
2017-10-25T06:49:45.489Z,13.30
2017-10-25T06:52:13.783Z,13.50
2017-10-25T06:54:41.308Z,13.50
2017-10-25T06:57:08.855Z,13.70
2017-10-25T06:59:36.389Z,13.80
2017-10-25T07:02:03.909Z,13.70
2017-10-25T07:04:31.441Z,13.60
2017-10-25T07:06:58.949Z,13.60
2017-10-25T07:09:26.461Z,13.60
2017-10-25T07:11:54.738Z,13.60
2017-10-25T07:14:22.235Z,13.70
2017-10-25T07:16:49.749Z,13.70
2017-10-25T07:19:17.285Z,13.70
2017-10-25T07:21:44.805Z,13.70
2017-10-25T07:24:12.312Z,13.60
2017-10-25T07:26:39.848Z,13.60
2017-10-25T07:29:07.364Z,13.60
2017-10-25T07:31:34.867Z,13.50
2017-10-25T07:34:02.402Z,13.50
2017-10-25T07:36:30.681Z,13.50
2017-10-25T07:38:59.068Z,13.50
2017-10-25T07:41:26.598Z,13.50
2017-10-25T07:43:54.883Z,13.50
2017-10-25T07:46:23.165Z,13.50
2017-10-25T07:48:51.473Z,13.50
2017-10-25T07:51:18.980Z,13.50
2017-10-25T07:53:46.491Z,13.50
2017-10-25T07:56:14.024Z,13.60
2017-10-25T07:58:42.338Z,13.60
2017-10-25T08:01:09.844Z,13.60
2017-10-25T08:03:37.357Z,13.60
2017-10-25T08:06:04.906Z,13.70
2017-10-25T08:08:32.418Z,13.70
2017-10-25T08:10:59.940Z,13.70
2017-10-25T08:13:27.672Z,13.80
2017-10-25T08:15:55.210Z,13.80
2017-10-25T08:18:23.487Z,13.90
2017-10-25T08:20:50.998Z,13.90
2017-10-25T08:23:18.607Z,13.90
2017-10-25T08:25:46.885Z,14.00
2017-10-25T08:28:15.157Z,14.00
2017-10-25T08:30:42.778Z,14.00
2017-10-25T08:35:44.081Z,14.00
2017-10-25T08:38:11.581Z,14.00
2017-10-25T08:40:39.092Z,14.00
2017-10-25T08:43:06.653Z,14.10
2017-10-25T08:45:34.159Z,14.00
2017-10-25T08:48:01.818Z,14.10
2017-10-25T08:50:29.349Z,14.10
2017-10-25T08:52:56.858Z,14.10
2017-10-25T08:55:24.364Z,14.10
2017-10-25T08:57:51.900Z,14.20
2017-10-25T09:00:19.419Z,14.20
2017-10-25T09:02:46.934Z,14.20
2017-10-25T09:05:14.558Z,14.20
2017-10-25T09:07:42.080Z,14.20
2017-10-25T09:10:10.354Z,14.40
2017-10-25T09:12:38.676Z,14.40
2017-10-25T09:15:06.208Z,14.40
2017-10-25T09:17:33.721Z,14.50
2017-10-25T09:20:01.260Z,14.60
2017-10-25T09:22:28.761Z,14.80
2017-10-25T09:24:56.275Z,14.80
2017-10-25T09:27:23.807Z,15.00
2017-10-25T09:29:51.325Z,15.00
2017-10-25T09:32:18.844Z,15.00
2017-10-25T09:34:46.369Z,15.00
2017-10-25T09:37:14.712Z,15.10
2017-10-25T09:39:42.258Z,15.10
2017-10-25T09:42:11.857Z,15.00
2017-10-25T09:44:39.474Z,15.10
2017-10-25T09:47:07.869Z,15.20
2017-10-25T09:49:35.751Z,15.20
2017-10-25T09:52:03.372Z,15.20
2017-10-25T09:54:30.922Z,15.20
2017-10-25T09:56:58.438Z,15.20
2017-10-25T09:59:25.952Z,15.30
2017-10-25T10:01:53.488Z,15.30
2017-10-25T10:04:21.006Z,15.40
2017-10-25T10:06:48.537Z,15.60
2017-10-25T10:09:16.809Z,15.80
2017-10-25T10:11:44.345Z,15.80
2017-10-25T10:14:11.875Z,16.00
2017-10-25T10:16:39.416Z,16.00
2017-10-25T10:19:06.929Z,16.10
2017-10-25T10:21:34.434Z,16.20
2017-10-25T10:24:01.962Z,16.20
2017-10-25T10:26:29.502Z,16.20
2017-10-25T10:28:57.025Z,16.40
2017-10-25T10:31:24.544Z,16.30
2017-10-25T10:33:52.076Z,16.30
2017-10-25T10:36:19.600Z,16.50
2017-10-25T10:38:47.101Z,16.60
2017-10-25T10:41:14.643Z,16.60
2017-10-25T10:43:42.926Z,16.80
2017-10-25T10:46:10.438Z,16.80
2017-10-25T10:48:38.931Z,16.70
2017-10-25T10:51:06.727Z,16.70
2017-10-25T10:53:35.117Z,16.70
2017-10-25T10:56:02.705Z,16.90
2017-10-25T10:58:31.031Z,16.90
2017-10-25T11:00:58.550Z,16.90
2017-10-25T11:03:26.826Z,16.80
2017-10-25T11:05:54.418Z,16.80
2017-10-25T11:08:22.019Z,16.80
2017-10-25T11:10:49.533Z,17.00
2017-10-25T11:16:32.074Z,17.30
2017-10-25T11:18:59.601Z,17.50
2017-10-25T11:21:27.201Z,17.80
2017-10-25T11:23:54.749Z,18.00
2017-10-25T11:26:22.809Z,18.00
2017-10-25T11:28:50.380Z,17.90
2017-10-25T11:31:17.921Z,17.90
2017-10-25T11:33:45.466Z,17.80
2017-10-25T11:36:12.986Z,17.70
2017-10-25T11:38:40.483Z,17.60
2017-10-25T11:41:08.012Z,17.60
2017-10-25T11:43:35.521Z,17.60
2017-10-25T11:46:03.993Z,17.70
2017-10-25T11:48:31.573Z,17.70
2017-10-25T11:50:59.080Z,17.60
2017-10-25T11:53:26.631Z,17.60
2017-10-25T11:55:54.172Z,17.60
2017-10-25T11:58:21.685Z,17.70
2017-10-25T12:00:49.248Z,17.70
2017-10-25T12:03:16.767Z,17.70
2017-10-25T12:05:44.286Z,17.70
2017-10-25T12:08:12.627Z,17.70
2017-10-25T12:10:40.156Z,17.60
2017-10-25T12:13:07.686Z,17.50
2017-10-25T12:15:36.008Z,17.60
2017-10-25T12:18:03.529Z,17.60
2017-10-25T12:20:31.069Z,17.60
2017-10-25T12:22:59.344Z,17.40
2017-10-25T12:25:27.665Z,17.40
2017-10-25T12:27:55.278Z,17.40
2017-10-25T12:30:22.786Z,17.30
2017-10-25T12:32:50.292Z,17.40
2017-10-25T12:35:17.825Z,17.40
2017-10-25T12:37:45.350Z,17.40
2017-10-25T12:40:12.877Z,17.60
2017-10-25T12:42:40.426Z,17.60
2017-10-25T12:45:08.016Z,17.50
2017-10-25T12:47:35.527Z,17.50
2017-10-25T12:50:03.069Z,17.50
2017-10-25T12:52:31.033Z,17.60
2017-10-25T12:54:58.566Z,17.60
2017-10-25T12:57:26.866Z,17.60
2017-10-25T12:59:54.378Z,17.60
2017-10-25T13:02:21.925Z,17.70
2017-10-25T13:04:49.424Z,17.70
2017-10-25T13:07:17.706Z,17.60
2017-10-25T13:09:46.005Z,17.70
2017-10-25T13:12:27.635Z,17.70
2017-10-25T13:15:09.850Z,17.80
2017-10-25T13:18:11.301Z,17.90
2017-10-25T13:20:38.848Z,17.90
2017-10-25T13:23:07.131Z,18.20
2017-10-25T13:25:34.640Z,18.10
2017-10-25T13:28:03.183Z,18.20
2017-10-25T13:30:30.899Z,18.20
2017-10-25T13:32:58.408Z,18.20
2017-10-25T13:35:25.940Z,18.30
2017-10-25T13:37:53.456Z,18.40
2017-10-25T13:40:20.960Z,18.70
2017-10-25T13:42:48.508Z,19.00
2017-10-25T13:45:16.017Z,18.90
2017-10-25T13:47:44.596Z,18.70
2017-10-25T13:50:12.932Z,18.80
2017-10-25T13:52:40.433Z,18.80
2017-10-25T13:55:08.042Z,18.80
2017-10-25T13:57:35.550Z,18.80
2017-10-25T14:00:03.065Z,18.70
2017-10-25T14:02:30.672Z,18.60
2017-10-25T14:04:58.177Z,18.60
2017-10-25T14:07:25.677Z,18.90
2017-10-25T14:09:53.217Z,19.50
2017-10-25T14:12:20.756Z,20.10
2017-10-25T14:14:48.273Z,20.60
2017-10-25T14:17:16.282Z,20.80
2017-10-25T14:19:43.832Z,20.80
2017-10-25T14:22:11.339Z,20.80
2017-10-25T14:24:38.881Z,20.90
2017-10-25T14:27:18.241Z,20.80
2017-10-25T14:29:45.781Z,20.70
2017-10-25T14:32:13.297Z,20.50
2017-10-25T14:34:40.957Z,20.40
2017-10-25T14:37:09.252Z,20.30
2017-10-25T14:39:36.777Z,20.20
2017-10-25T14:42:05.104Z,20.40
2017-10-25T14:44:32.614Z,20.30
2017-10-25T14:47:00.128Z,20.40
2017-10-25T14:49:27.665Z,20.50
2017-10-25T14:51:55.212Z,20.40
2017-10-25T14:54:22.716Z,20.20
2017-10-25T14:56:50.986Z,19.80
2017-10-25T14:59:18.513Z,19.80
2017-10-25T15:01:46.784Z,19.60
2017-10-25T15:04:15.064Z,19.50
2017-10-25T15:06:42.593Z,19.40
2017-10-25T15:09:10.100Z,19.30
2017-10-25T15:11:37.613Z,19.20
2017-10-25T15:14:05.162Z,19.10
2017-10-25T15:16:32.681Z,19.10
2017-10-25T15:19:00.195Z,19.00
2017-10-25T15:21:27.729Z,19.00
2017-10-25T15:23:55.234Z,18.90
2017-10-25T15:26:22.741Z,18.80
2017-10-25T15:28:51.044Z,18.70
2017-10-25T15:31:18.555Z,18.70
2017-10-25T15:33:46.060Z,18.60
2017-10-25T15:36:13.610Z,18.60
2017-10-25T15:38:41.133Z,18.50
2017-10-25T15:41:08.677Z,18.40
2017-10-25T15:43:36.208Z,18.30
2017-10-25T15:46:03.888Z,18.20
2017-10-25T15:48:32.494Z,17.90
2017-10-25T15:51:00.031Z,17.90
2017-10-25T15:53:28.422Z,17.80
2017-10-25T15:55:56.263Z,17.80
2017-10-25T15:58:23.837Z,17.70
2017-10-25T16:00:53.009Z,17.60
2017-10-25T16:03:21.481Z,17.50
2017-10-25T16:05:49.022Z,17.40
2017-10-25T16:08:16.575Z,17.20
2017-10-25T16:10:44.109Z,17.00
2017-10-25T16:13:11.618Z,16.90
2017-10-25T16:15:39.184Z,16.80
2017-10-25T16:18:06.715Z,16.80
2017-10-25T16:20:34.240Z,16.90
2017-10-25T16:23:02.716Z,16.80
2017-10-25T16:25:30.326Z,16.80
2017-10-25T16:27:57.875Z,16.80
2017-10-25T16:30:25.417Z,16.90
2017-10-25T16:32:52.953Z,16.90
2017-10-25T16:35:20.483Z,16.90
2017-10-25T16:37:48.005Z,16.60
2017-10-25T16:40:15.598Z,16.60
2017-10-25T16:42:43.120Z,16.50
2017-10-25T16:45:10.646Z,16.50
2017-10-25T16:47:38.185Z,16.40
2017-10-25T16:50:05.715Z,16.40
2017-10-25T16:52:33.236Z,16.30
2017-10-25T16:55:01.545Z,16.20
2017-10-25T16:57:29.080Z,16.10
2017-10-25T16:59:56.642Z,16.10
2017-10-25T17:02:24.151Z,16.10
2017-10-25T17:04:51.679Z,16.00
2017-10-25T17:07:19.255Z,16.00
2017-10-25T17:09:46.872Z,16.00
2017-10-25T17:12:14.450Z,16.00
2017-10-25T17:14:42.076Z,15.90
2017-10-25T17:17:10.389Z,15.90
2017-10-25T17:19:38.710Z,15.80
2017-10-25T17:22:06.350Z,15.80
2017-10-25T17:24:33.878Z,15.80
2017-10-25T17:27:02.240Z,15.80
2017-10-25T17:29:29.758Z,15.80
2017-10-25T17:31:57.341Z,15.80
2017-10-25T17:34:24.903Z,15.80
2017-10-25T17:36:53.189Z,15.70
2017-10-25T17:39:20.689Z,15.60
2017-10-25T17:41:48.280Z,15.60
2017-10-25T17:44:15.790Z,15.60
2017-10-25T17:46:44.072Z,15.50
2017-10-25T17:49:11.605Z,15.50
2017-10-25T17:51:39.898Z,15.40
2017-10-25T17:54:08.228Z,15.30
2017-10-25T17:56:35.830Z,15.30
2017-10-25T17:59:03.411Z,15.30
2017-10-25T18:01:30.943Z,15.20
2017-10-25T18:03:58.521Z,15.20
2017-10-25T18:06:26.101Z,15.30
2017-10-25T18:08:53.662Z,15.20
2017-10-25T18:11:21.203Z,15.20
2017-10-25T18:13:48.719Z,15.30
2017-10-25T18:16:16.921Z,15.40
2017-10-25T18:18:44.686Z,15.50
2017-10-25T18:21:13.068Z,15.70
2017-10-25T18:23:40.706Z,15.60
2017-10-25T18:26:08.764Z,15.60
2017-10-25T18:28:36.359Z,15.60
2017-10-25T18:31:03.920Z,15.60
2017-10-25T18:33:31.483Z,15.70
2017-10-25T18:35:58.993Z,15.60
2017-10-25T18:38:26.518Z,15.60
2017-10-25T18:40:54.075Z,15.60
2017-10-25T18:43:21.732Z,15.50
2017-10-25T18:45:50.028Z,15.40
2017-10-25T18:48:18.431Z,15.40
2017-10-25T18:50:46.043Z,15.30
2017-10-25T18:53:13.718Z,15.40
2017-10-25T18:55:41.352Z,15.30
2017-10-25T18:58:08.895Z,15.30
2017-10-25T19:00:36.595Z,15.30
2017-10-25T19:03:04.202Z,15.20
2017-10-25T19:05:31.806Z,15.10
2017-10-25T19:07:59.381Z,15.10
2017-10-25T19:10:26.950Z,15.10
2017-10-25T19:12:54.577Z,15.00
2017-10-25T19:15:22.328Z,15.00
2017-10-25T19:17:49.991Z,14.90
2017-10-25T19:20:18.043Z,14.90
2017-10-25T19:22:45.810Z,14.90
2017-10-25T19:25:13.878Z,14.90
2017-10-25T19:27:42.455Z,14.80
2017-10-25T19:30:11.271Z,14.80
2017-10-25T19:32:39.314Z,14.80
2017-10-25T19:35:06.932Z,14.90
2017-10-25T19:37:34.484Z,14.90
2017-10-25T19:40:02.306Z,14.80
2017-10-25T19:42:30.115Z,14.80
2017-10-25T19:44:57.669Z,14.70
2017-10-25T19:47:25.308Z,14.60
2017-10-25T19:49:52.841Z,14.60
2017-10-25T19:52:20.357Z,14.40
2017-10-25T19:54:48.166Z,14.40
2017-10-25T19:57:18.285Z,14.30
2017-10-25T19:59:46.702Z,14.30
2017-10-25T20:02:14.257Z,14.30
2017-10-25T20:04:42.648Z,14.20
2017-10-25T20:07:10.352Z,14.20
2017-10-25T20:09:37.985Z,14.10
2017-10-25T20:12:05.547Z,14.00
2017-10-25T20:14:33.238Z,13.80
2017-10-25T20:17:00.892Z,13.80
2017-10-25T20:19:28.619Z,13.70
2017-10-25T20:21:56.201Z,13.60
2017-10-25T20:24:24.045Z,13.60
2017-10-25T20:26:51.949Z,13.50
2017-10-25T20:29:19.668Z,13.40
2017-10-25T20:31:47.280Z,13.30
2017-10-25T20:34:15.177Z,13.20
2017-10-25T20:36:42.780Z,13.20
2017-10-25T20:39:10.401Z,13.10
2017-10-25T20:41:38.697Z,13.00
2017-10-25T20:44:06.241Z,13.00
2017-10-25T20:46:33.801Z,12.90
2017-10-25T20:49:02.102Z,13.00
2017-10-25T20:51:29.621Z,13.00
2017-10-25T20:53:57.164Z,13.00
2017-10-25T20:56:25.460Z,12.90
2017-10-25T20:58:53.759Z,12.90
2017-10-25T21:01:22.097Z,12.80
2017-10-25T21:03:49.621Z,12.80
2017-10-25T21:06:17.134Z,12.80
2017-10-25T21:08:44.683Z,12.80
2017-10-25T21:11:12.196Z,12.70
2017-10-25T21:13:39.696Z,12.70
2017-10-25T21:16:07.279Z,12.70
2017-10-25T21:18:35.635Z,12.60
2017-10-25T21:21:03.147Z,12.60
2017-10-25T21:23:30.692Z,12.60
2017-10-25T21:25:58.278Z,12.60
2017-10-25T21:28:25.851Z,12.50
2017-10-25T21:30:53.521Z,12.50
2017-10-25T21:33:21.297Z,12.50
2017-10-25T21:35:49.062Z,12.40
2017-10-25T21:38:16.722Z,12.30
2017-10-25T21:40:44.372Z,12.20
2017-10-25T21:43:12.002Z,12.20
2017-10-25T21:45:40.313Z,12.10
2017-10-25T21:48:07.909Z,12.10
2017-10-25T21:50:35.442Z,12.00
2017-10-25T21:53:03.016Z,12.00
2017-10-25T21:55:30.827Z,12.00
2017-10-25T21:57:58.670Z,12.00
2017-10-25T22:00:26.232Z,11.90
2017-10-25T22:02:53.747Z,11.90
2017-10-25T22:05:21.284Z,11.90
2017-10-25T22:07:48.787Z,11.80
2017-10-25T22:10:16.289Z,11.70
2017-10-25T22:12:44.580Z,11.60
2017-10-25T22:15:12.306Z,11.60
2017-10-25T22:17:39.814Z,11.60
2017-10-25T22:20:07.341Z,11.60
2017-10-25T22:22:35.613Z,11.50
2017-10-25T22:25:03.913Z,11.50
2017-10-25T22:27:31.428Z,11.50
2017-10-25T22:29:58.944Z,11.40
2017-10-25T22:32:26.474Z,11.40
2017-10-25T22:34:54.795Z,11.30
2017-10-25T22:37:22.301Z,11.30
2017-10-25T22:39:49.837Z,11.20
2017-10-25T22:42:17.347Z,11.20
2017-10-25T22:44:44.857Z,11.20
2017-10-25T22:47:12.401Z,11.20
2017-10-25T22:49:39.976Z,11.10
2017-10-25T22:52:07.491Z,11.10
2017-10-25T22:54:35.030Z,11.00
2017-10-25T22:57:03.317Z,10.90
2017-10-25T22:59:30.837Z,11.00
2017-10-25T23:01:58.380Z,10.90
2017-10-25T23:04:25.901Z,10.90
2017-10-25T23:06:53.420Z,10.90
2017-10-25T23:09:20.950Z,10.90
2017-10-25T23:11:48.457Z,10.80
2017-10-25T23:14:16.764Z,10.70
2017-10-25T23:16:44.276Z,10.70
2017-10-25T23:19:11.784Z,10.70
2017-10-25T23:21:39.315Z,10.60
2017-10-25T23:24:07.619Z,10.50
2017-10-25T23:26:35.235Z,10.50
2017-10-25T23:29:03.525Z,10.40
2017-10-25T23:31:31.808Z,10.30
2017-10-25T23:34:00.113Z,10.40
2017-10-25T23:36:27.625Z,10.30
2017-10-25T23:38:55.178Z,10.30
2017-10-25T23:41:22.725Z,10.30
2017-10-25T23:43:50.228Z,10.30
2017-10-25T23:46:18.499Z,10.20
2017-10-25T23:48:46.038Z,10.20
2017-10-25T23:51:13.636Z,10.20
2017-10-25T23:53:41.173Z,10.20
2017-10-25T23:56:08.689Z,10.10
2017-10-25T23:58:36.208Z,10.10
